Time;durP1;ratioP1;P1;durP2;ratioP2;P2;SDS_P1;SDS_P2;PMS_P1;PMS_P2;Temp;Humidity;BMP_temperature;BMP_pressure;BME280_temperature;BME280_humidity;BME280_pressure;Samples;Min_cycle;Max_cycle;Signal;HPM_P1;HPM_P2
2023/04/24 00:01:31;;;;;;;;;52.33;42.33;;;;;8.84;82.21;98873.47;6277082;20;2869131;-57
2023/04/24 00:04:01;;;;;;;;;41.00;36.00;;;;;8.72;83.31;98867.16;6307187;20;2864938;-52
2023/04/24 00:06:34;;;;;;;;;46.67;40.00;;;;;8.89;83.27;98861.50;6305255;20;2860735;-52
2023/04/24 00:09:03;;;;;;;;;48.00;37.00;;;;;8.83;83.54;98861.06;6307626;20;2864894;-52
2023/04/24 00:11:32;;;;;;;;;44.00;38.00;;;;;8.84;84.42;98863.63;6276663;20;2862923;-56
2023/04/24 00:14:02;;;;;;;;;45.67;38.00;;;;;8.86;84.15;98859.03;6275568;20;2865959;-57
2023/04/24 00:16:32;;;;;;;;;48.00;39.00;;;;;9.00;83.01;98853.63;6305114;20;2848299;-54
2023/04/24 00:19:01;;;;;;;;;38.00;34.00;;;;;9.06;81.19;98851.44;6305818;20;2854468;-56
2023/04/24 00:21:29;;;;;;;;;43.50;38.00;;;;;8.92;81.96;98850.56;6140866;20;2863843;-56
2023/04/24 00:23:59;;;;;;;;;41.33;35.67;;;;;8.79;82.25;98849.69;6279047;20;3600257;-53
2023/04/24 00:26:28;;;;;;;;;40.67;35.67;;;;;8.76;83.23;98845.41;6306783;20;3605556;-55
2023/04/24 00:28:57;;;;;;;;;46.50;37.00;;;;;8.62;83.63;98839.28;6280610;20;2864881;-54
2023/04/24 00:31:26;;;;;;;;;39.00;35.00;;;;;8.73;84.13;98842.09;6279830;20;2856645;-54
2023/04/24 00:33:56;;;;;;;;;40.50;35.00;;;;;8.54;84.50;98840.66;6306483;20;2854584;-57
2023/04/24 00:36:26;;;;;;;;;41.67;35.00;;;;;8.73;84.11;98839.41;6307554;20;2855454;-57
2023/04/24 00:38:56;;;;;;;;;42.00;36.67;;;;;9.11;82.93;98833.25;6310757;20;2864883;-56
2023/04/24 00:41:26;;;;;;;;;45.33;36.67;;;;;8.96;82.37;98835.19;6309603;20;3619082;-57
2023/04/24 00:43:55;;;;;;;;;38.67;35.00;;;;;9.13;80.81;98831.31;6312325;20;3597124;-53
2023/04/24 00:46:25;;;;;;;;;37.33;36.00;;;;;8.93;82.25;98836.25;6272111;20;3609769;-57
2023/04/24 00:48:54;;;;;;;;;39.50;36.00;;;;;8.95;81.71;98830.78;6308368;20;2859726;-55
2023/04/24 00:51:24;;;;;;;;;43.50;37.50;;;;;9.34;80.78;98835.19;6275239;20;2846351;-51
2023/04/24 00:53:53;;;;;;;;;41.50;37.00;;;;;9.26;82.28;98842.91;6278967;20;2845104;-54
2023/04/24 00:56:20;;;;;;;;;46.00;38.50;;;;;9.36;81.60;98833.25;6274779;20;2493096;-56
2023/04/24 00:58:50;;;;;;;;;44.50;39.00;;;;;9.52;80.89;98837.53;6278261;20;2842979;-52
2023/04/24 01:01:22;;;;;;;;;51.33;40.00;;;;;9.69;80.37;98837.22;6278582;20;2859813;-54
2023/04/24 01:03:52;;;;;;;;;50.50;41.00;;;;;9.64;79.79;98842.88;6306713;20;2855457;-53
2023/04/24 01:06:21;;;;;;;;;52.00;43.00;;;;;9.56;79.72;98836.38;6273172;20;2749260;-55
2023/04/24 01:08:51;;;;;;;;;50.33;41.67;;;;;9.48;81.10;98836.03;6311538;20;2862870;-53
2023/04/24 01:11:21;;;;;;;;;50.50;40.50;;;;;9.66;79.56;98838.28;6315115;20;2863873;-52
2023/04/24 01:13:49;;;;;;;;;47.00;41.00;;;;;9.66;79.96;98837.41;6282493;20;2840938;-54
2023/04/24 01:16:20;;;;;;;;;42.50;35.00;;;;;9.86;78.90;98836.84;6280108;20;2859678;-50
2023/04/24 01:18:51;;;;;;;;;50.67;40.33;;;;;9.74;78.84;98839.53;6283759;20;2865877;-55
2023/04/24 01:21:21;;;;;;;;;49.33;38.00;;;;;9.57;80.17;98840.75;6311537;20;2851380;-54
2023/04/24 01:23:51;;;;;;;;;46.50;39.00;;;;;9.85;79.38;98835.13;6312993;20;2866946;-55
2023/04/24 01:26:21;;;;;;;;;54.67;43.33;;;;;9.93;78.76;98831.03;6277811;20;3606476;-57
2023/04/24 01:28:50;;;;;;;;;51.00;42.50;;;;;9.74;79.15;98821.66;6314518;20;2855460;-54
2023/04/24 01:31:20;;;;;;;;;48.00;37.33;;;;;9.83;79.57;98820.97;6280581;20;2869094;-56
2023/04/24 01:33:52;;;;;;;;;39.33;35.67;;;;;10.01;78.82;98823.28;6311780;20;3608703;-55
2023/04/24 01:36:22;;;;;;;;;44.67;38.00;;;;;9.81;79.65;98812.16;6310671;20;2862075;-57
2023/04/24 01:38:54;;;;;;;;;36.00;33.67;;;;;9.63;83.36;98813.50;6317644;20;3589974;-55
2023/04/24 01:41:24;;;;;;;;;34.00;32.33;;;;;9.17;87.18;98814.09;6280403;20;2854542;-52
2023/04/24 01:43:54;;;;;;;;;33.33;29.67;;;;;8.82;89.98;98812.03;6317258;20;3597171;-53
2023/04/24 01:46:23;;;;;;;;;33.00;31.50;;;;;8.88;90.25;98816.13;6275320;20;2841975;-56
2023/04/24 01:48:54;;;;;;;;;39.33;33.33;;;;;8.89;91.39;98805.28;6280452;20;2861893;-54
2023/04/24 01:51:23;;;;;;;;;39.00;34.00;;;;;9.19;89.41;98810.34;6312720;20;3606507;-54
2023/04/24 01:53:53;;;;;;;;;41.67;36.33;;;;;9.44;87.93;98804.09;6281934;20;2860847;-54
2023/04/24 01:56:23;;;;;;;;;47.00;38.00;;;;;9.67;84.76;98804.28;6310540;20;2866973;-53
2023/04/24 01:58:55;;;;;;;;;48.00;38.00;;;;;9.76;83.86;98806.28;6310950;20;2861789;-53
2023/04/24 02:01:26;;;;;;;;;38.00;34.50;;;;;9.89;83.16;98808.94;6313722;20;2858647;-58
2023/04/24 02:03:56;;;;;;;;;44.67;37.67;;;;;9.61;84.33;98804.72;6281888;20;2849393;-52
2023/04/24 02:06:24;;;;;;;;;47.50;39.50;;;;;9.75;83.56;98804.59;6309581;20;2866933;-56
2023/04/24 02:08:54;;;;;;;;;41.00;36.67;;;;;9.52;84.59;98800.03;6280797;20;2863890;-56
2023/04/24 02:11:23;;;;;;;;;47.00;38.00;;;;;9.76;84.25;98790.22;6309457;20;2751406;-57
2023/04/24 02:13:53;;;;;;;;;48.00;39.00;;;;;9.74;83.88;98797.53;6309447;20;2862820;-58
2023/04/24 02:16:22;;;;;;;;;50.00;39.00;;;;;9.89;83.60;98804.44;6276171;20;2867015;-56
2023/04/24 02:18:52;;;;;;;;;47.33;36.67;;;;;9.89;83.46;98801.75;6308408;20;2860712;-56
2023/04/24 02:21:21;;;;;;;;;45.50;38.00;;;;;9.81;82.35;98796.09;6305762;20;2842997;-55
2023/04/24 02:23:50;;;;;;;;;43.50;36.00;;;;;9.74;82.48;98786.81;6283503;20;2851315;-56
2023/04/24 02:26:19;;;;;;;;;43.00;38.50;;;;;9.84;81.82;98797.69;6280147;20;2849718;-53
2023/04/24 02:28:48;;;;;;;;;48.67;38.00;;;;;9.58;84.71;98780.81;6282271;20;2864903;-54
2023/04/24 02:31:18;;;;;;;;;45.33;38.33;;;;;9.52;85.14;98779.44;6311875;20;2861936;-53
2023/04/24 02:33:47;;;;;;;;;43.00;38.50;;;;;9.63;83.70;98778.66;6311568;20;2857600;-55
2023/04/24 02:36:16;;;;;;;;;49.50;40.00;;;;;9.75;83.08;98774.25;6282539;20;2847206;-54
2023/04/24 02:38:43;;;;;;;;;42.50;36.00;;;;;9.64;85.00;98765.16;6279052;20;2496207;-53
2023/04/24 02:41:13;;;;;;;;;43.00;35.00;;;;;9.29;87.37;98753.44;6283129;20;3625385;-55
2023/04/24 02:43:42;;;;;;;;;34.67;33.67;;;;;9.16;88.75;98756.13;6313449;20;3601436;-54
2023/04/24 02:46:11;;;;;;;;;36.50;34.00;;;;;8.84;90.81;98750.34;6311909;20;2860691;-58
2023/04/24 02:48:40;;;;;;;;;41.00;36.00;;;;;8.95;90.44;98737.06;6280076;20;2861964;-56
2023/04/24 02:51:09;;;;;;;;;41.50;36.00;;;;;9.02;91.26;98722.28;6311858;20;2863848;-53
2023/04/24 02:53:38;;;;;;;;;38.00;36.00;;;;;8.87;91.26;98718.88;6280737;20;2881599;-56
2023/04/24 02:56:07;;;;;;;;;43.00;37.00;;;;;9.26;92.54;98733.09;6280161;20;2851403;-57
2023/04/24 02:58:36;;;;;;;;;50.50;40.50;;;;;9.04;92.64;98736.44;6278267;20;2839996;-57
2023/04/24 03:01:05;;;;;;;;;47.00;40.00;;;;;9.37;91.47;98722.47;6279969;20;2856528;-57
2023/04/24 03:03:34;;;;;;;;;43.50;39.00;;;;;9.45;91.34;98714.72;6280496;20;2856569;-55
2023/04/24 03:06:05;;;;;;;;;47.00;41.00;;;;;9.56;89.21;98715.78;6277988;20;2842008;-56
2023/04/24 03:08:35;;;;;;;;;50.00;42.00;;;;;9.54;90.84;98733.78;6280947;20;2848244;-53
2023/04/24 03:11:04;;;;;;;;;48.00;39.00;;;;;9.66;91.27;98727.50;6279939;20;2858640;-52
2023/04/24 03:13:33;;;;;;;;;45.00;39.00;;;;;9.62;90.42;98715.31;6280556;20;2843022;-57
2023/04/24 03:16:02;;;;;;;;;49.67;41.00;;;;;9.75;91.14;98716.13;6280143;20;2863845;-58
2023/04/24 03:18:32;;;;;;;;;53.00;42.67;;;;;9.73;90.19;98715.38;6312570;20;2866008;-56
2023/04/24 03:21:01;;;;;;;;;46.50;40.00;;;;;9.34;91.40;98714.63;6309669;20;2893995;-57
2023/04/24 03:23:30;;;;;;;;;52.00;42.00;;;;;9.15;94.08;98700.88;6277852;20;2859691;-57
2023/04/24 03:25:59;;;;;;;;;44.00;38.00;;;;;9.12;95.67;98701.94;6276410;20;2862783;-53
2023/04/24 03:28:29;;;;;;;;;50.67;40.00;;;;;9.22;96.78;98718.22;6281229;20;2869513;-51
2023/04/24 03:30:58;;;;;;;;;52.00;43.00;;;;;9.28;95.52;98715.09;6310279;20;2863895;-54
2023/04/24 03:33:27;;;;;;;;;50.50;42.00;;;;;9.35;96.59;98719.03;6310130;20;2847243;-55
2023/04/24 03:35:56;;;;;;;;;53.50;43.50;;;;;9.36;95.09;98725.25;6275136;20;2860665;-54
2023/04/24 03:38:25;;;;;;;;;51.50;42.00;;;;;9.35;96.50;98721.72;6280300;20;2858643;-56
2023/04/24 03:40:54;;;;;;;;;52.00;42.00;;;;;9.52;94.89;98725.00;6279670;20;2866984;-56
2023/04/24 03:43:24;;;;;;;;;54.00;41.33;;;;;9.37;95.42;98727.84;6312692;20;3613856;-53
2023/04/24 03:45:54;;;;;;;;;49.00;40.00;;;;;9.47;95.74;98748.59;6309304;20;3608659;-56
2023/04/24 03:48:22;;;;;;;;;41.00;37.50;;;;;9.45;94.62;98741.53;6310192;20;2851354;-56
2023/04/24 03:50:51;;;;;;;;;47.50;39.00;;;;;9.38;95.45;98745.59;6281356;20;2867003;-55
2023/04/24 03:53:21;;;;;;;;;51.67;43.00;;;;;9.29;95.94;98740.03;6278773;20;2869009;-54
2023/04/24 03:55:50;;;;;;;;;43.50;39.50;;;;;9.27;96.59;98750.88;6308435;20;2865976;-53
2023/04/24 03:58:19;;;;;;;;;44.00;39.00;;;;;9.49;95.28;98749.34;6279120;20;2860772;-53
2023/04/24 04:00:50;;;;;;;;;50.67;41.33;;;;;9.49;96.45;98746.66;6309595;20;2865937;-55
2023/04/24 04:03:19;;;;;;;;;49.00;41.00;;;;;9.48;96.01;98737.78;6309039;20;2854450;-54
2023/04/24 04:05:49;;;;;;;;;52.67;42.33;;;;;9.17;96.90;98731.06;6308148;20;2866978;-54
2023/04/24 04:08:18;;;;;;;;;54.50;45.00;;;;;9.30;97.16;98737.25;6309877;20;2857648;-54
2023/04/24 04:10:47;;;;;;;;;53.00;44.00;;;;;9.14;97.28;98740.19;6278985;20;2846121;-53
2023/04/24 04:13:16;;;;;;;;;52.50;43.00;;;;;9.27;96.64;98742.84;6281153;20;2859705;-53
2023/04/24 04:15:45;;;;;;;;;53.67;44.33;;;;;9.04;97.93;98748.97;6274926;20;2853442;-51
2023/04/24 04:18:15;;;;;;;;;48.50;39.00;;;;;9.26;97.88;98757.19;6308899;20;2845125;-51
2023/04/24 04:20:44;;;;;;;;;50.00;42.50;;;;;9.18;99.14;98748.84;6276204;20;2858747;-48
2023/04/24 04:23:13;;;;;;;;;52.00;42.00;;;;;9.37;98.89;98748.38;6279042;20;2861779;-54
2023/04/24 04:25:42;;;;;;;;;51.50;44.50;;;;;9.43;96.68;98748.81;6276327;20;2856643;-57
2023/04/24 04:28:10;;;;;;;;;49.50;40.50;;;;;9.37;96.22;98743.03;6280062;20;2857526;-57
2023/04/24 04:30:41;;;;;;;;;43.67;37.00;;;;;9.42;96.23;98736.38;6277086;20;2873252;-55
2023/04/24 04:33:10;;;;;;;;;50.00;43.00;;;;;9.49;96.63;98741.31;6308941;20;2857602;-54
2023/04/24 04:35:40;;;;;;;;;52.00;42.00;;;;;9.51;96.65;98742.06;6277745;20;2874330;-53
2023/04/24 04:38:10;;;;;;;;;48.00;41.50;;;;;9.55;96.30;98738.16;6307548;20;2855562;-54
2023/04/24 04:40:40;;;;;;;;;54.00;43.33;;;;;9.53;96.73;98742.78;6277003;20;2864021;-53
2023/04/24 04:43:10;;;;;;;;;51.00;41.00;;;;;9.67;96.19;98745.31;6313300;20;2870216;-54
2023/04/24 04:45:42;;;;;;;;;48.67;40.00;;;;;9.54;95.80;98744.50;6314492;20;2858611;-56
2023/04/24 04:48:13;;;;;;;;;47.67;39.00;;;;;9.62;96.53;98736.75;6308364;20;2867146;-56
2023/04/24 04:50:42;;;;;;;;;51.50;40.00;;;;;9.72;96.50;98742.31;6312382;20;2868005;-56
2023/04/24 04:53:11;;;;;;;;;52.00;43.00;;;;;9.63;97.15;98742.00;6280769;20;2859658;-55
2023/04/24 04:55:41;;;;;;;;;50.33;42.00;;;;;9.62;97.37;98736.75;6281361;20;2849407;-57
2023/04/24 04:58:10;;;;;;;;;49.50;40.50;;;;;9.70;96.13;98749.59;6311177;20;2857612;-56
2023/04/24 05:00:39;;;;;;;;;52.50;43.00;;;;;9.82;96.38;98754.03;6281048;20;2853548;-56
2023/04/24 05:03:08;;;;;;;;;46.33;38.33;;;;;9.62;96.83;98752.84;6282727;20;2862924;-56
2023/04/24 05:05:48;;;;;;;;;49.50;40.00;;;;;9.85;96.06;98753.84;6309738;20;2855501;-53
2023/04/24 05:08:17;;;;;;;;;50.00;42.00;;;;;9.95;96.49;98743.28;6284336;20;2854481;-50
2023/04/24 05:10:55;;;;;;;;;50.33;38.33;;;;;9.95;95.72;98738.75;6282670;20;2878468;-51
2023/04/24 05:13:24;;;;;;;;;44.00;37.00;;;;;9.59;97.08;98726.28;6314482;20;2841264;-53
2023/04/24 05:16:07;;;;;;;;;50.33;41.33;;;;;9.68;98.74;98725.59;6277211;20;2864930;-51
2023/04/24 05:18:37;;;;;;;;;51.00;43.00;;;;;9.88;98.51;98735.69;6311290;20;2855511;-51
2023/04/24 05:21:07;;;;;;;;;45.33;39.33;;;;;9.92;99.83;98732.78;6313543;20;2860842;-48
2023/04/24 05:23:36;;;;;;;;;49.33;41.00;;;;;9.87;99.46;98734.00;6316255;20;3619185;-51
2023/04/24 05:26:05;;;;;;;;;46.00;39.50;;;;;10.01;97.89;98734.81;6313976;20;2863820;-49
2023/04/24 05:28:36;;;;;;;;;58.33;45.00;;;;;10.33;97.46;98733.25;6280051;20;2877593;-48
2023/04/24 05:31:06;;;;;;;;;60.00;47.33;;;;;10.26;96.49;98731.97;6314925;20;2868089;-50
2023/04/24 05:33:35;;;;;;;;;55.00;45.00;;;;;10.29;97.54;98736.28;6310118;20;2845071;-52
2023/04/24 05:36:05;;;;;;;;;49.50;41.50;;;;;10.21;98.88;98728.78;6280223;20;2857593;-49
2023/04/24 05:38:34;;;;;;;;;49.00;40.50;;;;;10.21;98.93;98730.59;6279976;20;2847310;-53
2023/04/24 05:41:03;;;;;;;;;42.33;38.00;;;;;10.32;97.72;98720.81;6284319;20;2862880;-51
2023/04/24 05:43:33;;;;;;;;;49.67;39.33;;;;;10.21;98.62;98712.66;6312334;20;2860897;-47
2023/04/24 05:46:02;;;;;;;;;49.00;42.00;;;;;10.16;100.00;98725.56;6312029;20;2852364;-50
2023/04/24 05:48:31;;;;;;;;;48.00;40.00;;;;;10.43;100.00;98725.38;6280621;20;2854158;-51
2023/04/24 05:51:03;;;;;;;;;473.40;344.00;;;;;10.53;99.45;98720.13;6281567;20;5328303;-49
2023/04/24 05:53:32;;;;;;;;;62.33;50.67;;;;;10.59;99.13;98708.94;6313419;20;3608576;-48
2023/04/24 05:56:01;;;;;;;;;45.50;39.00;;;;;10.24;99.94;98706.22;6310392;20;2846224;-52
2023/04/24 05:58:30;;;;;;;;;52.00;42.00;;;;;10.54;100.00;98700.38;6280091;20;2849340;-53
2023/04/24 06:01:01;;;;;;;;;83.67;68.33;;;;;10.66;100.00;98702.09;6282879;20;3673188;-49
2023/04/24 06:03:32;;;;;;;;;391.50;243.75;;;;;10.66;100.00;98709.31;6280050;20;4512837;-48
2023/04/24 06:06:00;;;;;;;;;492.00;336.50;;;;;10.92;100.00;98704.56;6300768;20;1983623;-50
2023/04/24 06:08:30;;;;;;;;;43.67;39.00;;;;;10.92;100.00;98696.53;6281202;20;2866075;-48
2023/04/24 06:10:59;;;;;;;;;53.67;43.67;;;;;11.25;100.00;98692.16;6319878;20;3602341;-50
2023/04/24 06:13:31;;;;;;;;;39.50;36.00;;;;;11.32;98.99;98694.22;6280643;20;2853298;-50
2023/04/24 06:16:00;;;;;;;;;41.50;35.00;;;;;11.59;98.21;98690.25;6282810;20;2849213;-48
2023/04/24 06:18:29;;;;;;;;;51.00;42.50;;;;;11.67;97.00;98703.94;6281293;20;2857651;-50
2023/04/24 06:20:58;;;;;;;;;47.67;39.33;;;;;11.69;97.42;98706.47;6283493;20;2857593;-48
2023/04/24 06:23:27;;;;;;;;;47.00;34.67;;;;;11.88;97.35;98701.34;6318343;20;3604478;-53
2023/04/24 06:25:55;;;;;;;;;106.00;87.00;;;;;11.98;95.89;98706.78;6274776;20;1952579;-48
2023/04/24 06:28:24;;;;;;;;;59.00;47.50;;;;;12.11;95.19;98712.00;6282799;20;3498680;-47
2023/04/24 06:30:54;;;;;;;;;87.33;76.33;;;;;12.45;95.26;98728.84;6311195;20;3660713;-50
2023/04/24 06:33:24;;;;;;;;;51.67;40.00;;;;;12.20;97.16;98738.16;6284316;20;3603385;-48
2023/04/24 06:35:53;;;;;;;;;42.50;36.50;;;;;11.97;98.49;98734.69;6313031;20;2849251;-48
2023/04/24 06:38:22;;;;;;;;;39.50;34.00;;;;;11.71;99.14;98729.56;6281030;20;2844025;-50
2023/04/24 06:40:50;;;;;;;;;41.00;36.00;;;;;11.73;100.00;98729.47;6283103;20;2855477;-50
2023/04/24 06:43:20;;;;;;;;;43.50;37.50;;;;;11.45;100.00;98725.47;6281857;20;2851360;-49
2023/04/24 06:45:50;;;;;;;;;76.33;56.33;;;;;11.71;100.00;98734.94;6282306;20;3644093;-50
2023/04/24 06:48:18;;;;;;;;;104.00;77.50;;;;;11.69;100.00;98736.06;6308978;20;1946239;-50
2023/04/24 06:50:46;;;;;;;;;84.00;67.00;;;;;11.78;100.00;98727.25;6281793;20;1931631;-50
2023/04/24 06:53:16;;;;;;;;;50.33;40.33;;;;;11.77;100.00;98737.16;6281979;20;2869223;-49
2023/04/24 06:55:45;;;;;;;;;45.00;37.33;;;;;11.69;100.00;98741.44;6311653;20;2863829;-52
2023/04/24 06:58:15;;;;;;;;;40.33;36.33;;;;;11.79;100.00;98745.09;6311607;20;2856511;-48
2023/04/24 07:00:45;;;;;;;;;75.00;53.67;;;;;11.84;100.00;98732.97;6312972;20;3658724;-48
2023/04/24 07:03:15;;;;;;;;;81.00;64.67;;;;;11.89;100.00;98732.63;6277560;20;3664845;-48
2023/04/24 07:05:46;;;;;;;;;53.00;42.00;;;;;12.19;100.00;98728.34;6279582;20;2868017;-47
2023/04/24 07:08:17;;;;;;;;;44.33;37.33;;;;;12.13;100.00;98726.19;6280165;20;2848317;-49
2023/04/24 07:10:46;;;;;;;;;50.67;42.33;;;;;12.14;100.00;98727.88;6315803;20;3599296;-47
2023/04/24 07:13:17;;;;;;;;;46.33;37.67;;;;;12.24;100.00;98718.06;6309391;20;2857676;-54
2023/04/24 07:15:48;;;;;;;;;71.50;53.50;;;;;12.03;100.00;98718.03;6314304;20;3632746;-52
2023/04/24 07:18:18;;;;;;;;;46.67;38.33;;;;;12.35;100.00;98725.22;6312401;20;2858694;-54
2023/04/24 07:20:49;;;;;;;;;40.33;34.67;;;;;12.32;100.00;98723.66;6315707;20;3607703;-52
2023/04/24 07:23:19;;;;;;;;;50.00;41.50;;;;;12.89;100.00;98730.44;6280014;20;2856533;-53
2023/04/24 07:25:48;;;;;;;;;50.00;40.00;;;;;13.42;100.00;98736.69;6282083;20;2858906;-52
2023/04/24 07:28:18;;;;;;;;;38.67;34.33;;;;;13.70;97.37;98733.25;6280988;20;2853465;-51
2023/04/24 07:30:46;;;;;;;;;36.33;32.67;;;;;13.77;96.14;98742.50;6319526;20;3609704;-54
2023/04/24 07:33:16;;;;;;;;;37.33;33.33;;;;;13.80;95.37;98741.38;6282056;20;3585755;-53
2023/04/24 07:35:47;;;;;;;;;40.25;34.13;;;;;14.28;93.90;98744.13;6305485;20;3589319;-55
2023/04/24 07:38:16;;;;;;;;;37.00;33.00;;;;;14.24;93.97;98740.03;6275975;20;2849312;-52
2023/04/24 07:40:45;;;;;;;;;35.67;31.67;;;;;14.36;92.04;98743.44;6280923;20;2860766;-52
2023/04/24 07:43:17;;;;;;;;;34.33;30.00;;;;;14.08;92.93;98747.81;6317174;20;3592085;-49
2023/04/24 07:45:46;;;;;;;;;42.67;32.67;;;;;13.81;93.72;98754.72;6287618;20;3594118;-54
2023/04/24 07:48:16;;;;;;;;;42.67;35.00;;;;;13.78;95.03;98746.91;6283224;20;3609700;-51
2023/04/24 07:50:45;;;;;;;;;37.00;33.00;;;;;13.55;95.86;98748.09;6282293;20;3602399;-51
2023/04/24 07:53:15;;;;;;;;;39.00;33.00;;;;;13.49;96.39;98741.41;6283563;20;2849258;-52
2023/04/24 07:55:43;;;;;;;;;40.33;35.00;;;;;13.33;97.38;98739.22;6317364;20;3600376;-51
2023/04/24 07:58:13;;;;;;;;;42.33;35.00;;;;;13.37;98.27;98745.19;6281841;20;2856643;-49
2023/04/24 08:00:42;;;;;;;;;36.33;33.00;;;;;13.36;99.32;98738.94;6315169;20;3597139;-51
2023/04/24 08:03:12;;;;;;;;;37.00;32.33;;;;;13.12;100.00;98735.69;6280408;20;2848295;-53
2023/04/24 08:05:42;;;;;;;;;45.00;36.33;;;;;13.19;100.00;98731.44;6316001;20;3599208;-49
2023/04/24 08:08:12;;;;;;;;;33.67;30.00;;;;;13.11;100.00;98725.88;6278598;20;2855594;-50
2023/04/24 08:10:41;;;;;;;;;48.00;38.67;;;;;13.31;100.00;98730.41;6314425;20;3604576;-50
2023/04/24 08:13:11;;;;;;;;;47.67;39.67;;;;;13.37;100.00;98729.84;6283533;20;2855584;-51
2023/04/24 08:15:40;;;;;;;;;44.33;37.67;;;;;13.47;100.00;98734.44;6313907;20;3591879;-51
2023/04/24 08:18:11;;;;;;;;;46.67;39.00;;;;;13.67;100.00;98736.22;6283884;20;2852550;-49
2023/04/24 08:20:40;;;;;;;;;39.33;33.67;;;;;13.77;100.00;98737.13;6319098;20;3592938;-49
2023/04/24 08:23:10;;;;;;;;;44.00;37.67;;;;;14.05;100.00;98738.13;6289437;20;2854549;-48
2023/04/24 08:25:39;;;;;;;;;54.33;44.67;;;;;14.34;100.00;98740.00;6317687;20;3614857;-50
2023/04/24 08:28:10;;;;;;;;;63.67;50.67;;;;;14.03;100.00;98745.53;6318799;20;3618066;-49
2023/04/24 08:30:40;;;;;;;;;57.33;44.67;;;;;14.25;100.00;98736.31;6285329;20;3633571;-48
2023/04/24 08:33:09;;;;;;;;;76.25;68.75;;;;;14.37;100.00;98734.31;6318592;20;3644100;-49
2023/04/24 08:35:39;;;;;;;;;52.67;43.33;;;;;14.56;100.00;98740.75;6317454;20;3600306;-50
2023/04/24 08:38:08;;;;;;;;;41.33;36.33;;;;;14.42;100.00;98742.00;6318740;20;3603542;-50
2023/04/24 08:40:39;;;;;;;;;50.33;41.33;;;;;14.52;100.00;98745.56;6282385;20;2866136;-50
2023/04/24 08:43:08;;;;;;;;;45.00;38.00;;;;;14.40;100.00;98744.88;6321531;20;3542180;-47
2023/04/24 08:45:38;;;;;;;;;47.33;38.67;;;;;14.53;99.58;98739.19;6318955;20;3589902;-50
2023/04/24 08:48:09;;;;;;;;;41.33;35.67;;;;;14.76;100.00;98736.19;6286679;20;2844613;-53
2023/04/24 08:50:51;;;;;;;;;55.67;43.33;;;;;14.76;98.20;98744.31;6320182;20;3606541;-51
2023/04/24 08:53:20;;;;;;;;;46.50;40.00;;;;;14.81;99.92;98750.13;6282644;20;2847282;-54
2023/04/24 08:55:51;;;;;;;;;43.67;36.67;;;;;14.89;100.00;98744.84;6279736;20;3610713;-51
2023/04/24 08:58:20;;;;;;;;;45.33;36.67;;;;;14.67;99.03;98741.47;6316547;20;3595046;-51
2023/04/24 09:00:50;;;;;;;;;39.67;35.33;;;;;14.61;99.14;98742.06;6280550;20;2867327;-52
2023/04/24 09:03:20;;;;;;;;;42.00;34.00;;;;;14.38;99.30;98735.19;6318737;20;3604561;-52
2023/04/24 09:05:50;;;;;;;;;35.33;29.67;;;;;14.70;98.49;98729.53;6283870;20;3601291;-48
2023/04/24 09:08:20;;;;;;;;;41.33;35.00;;;;;15.07;100.00;98728.72;6316994;20;3585819;-47
2023/04/24 09:10:49;;;;;;;;;44.00;35.00;;;;;15.06;98.44;98733.28;6283805;20;2806569;-48
2023/04/24 09:13:20;;;;;;;;;39.00;35.00;;;;;14.91;97.30;98732.88;6285049;20;2850441;-49
2023/04/24 09:15:49;;;;;;;;;40.33;34.67;;;;;14.92;99.63;98728.34;6317369;20;3599254;-50
2023/04/24 09:18:20;;;;;;;;;39.00;35.00;;;;;15.19;97.41;98735.66;6283029;20;2855534;-53
2023/04/24 09:21:10;;;;;;;;;44.67;35.33;;;;;15.36;96.44;98728.63;6315034;20;3621146;-48
2023/04/24 09:23:39;;;;;;;;;39.67;36.33;;;;;15.39;95.40;98725.63;6322468;20;3593046;-52
2023/04/24 09:26:10;;;;;;;;;41.00;35.33;;;;;15.66;94.23;98723.94;6284700;20;2855633;-49
2023/04/24 09:28:41;;;;;;;;;38.00;34.00;;;;;15.17;92.83;98726.00;6318437;20;3579572;-52
2023/04/24 09:31:16;;;;;;;;;40.00;36.00;;;;;15.40;94.29;98721.91;6284507;20;2840877;-51
2023/04/24 09:34:03;;;;;;;;;43.33;39.00;;;;;15.90;93.81;98718.81;6287012;20;2859777;-52
2023/04/24 09:36:44;;;;;;;;;41.67;36.00;;;;;15.73;91.34;98712.38;6317202;20;3601301;-54
2023/04/24 09:39:16;;;;;;;;;38.33;33.00;;;;;16.13;90.32;98724.66;6285380;20;2859236;-53
2023/04/24 09:42:00;;;;;;;;;32.00;31.00;;;;;16.63;90.01;98710.56;6320825;20;3596064;-54
2023/04/24 09:44:29;;;;;;;;;36.67;31.67;;;;;17.38;85.19;98706.50;6289256;20;3623403;-49
2023/04/24 09:47:00;;;;;;;;;39.00;31.67;;;;;17.48;84.46;98713.53;6285903;20;2854993;-49
2023/04/24 09:49:36;;;;;;;;;37.00;31.00;;;;;17.81;82.76;98715.56;6318572;20;3607592;-52
2023/04/24 09:52:12;;;;;;;;;34.67;32.33;;;;;17.94;81.18;98716.78;6285506;20;3599195;-55
2023/04/24 09:54:40;;;;;;;;;34.33;31.67;;;;;16.66;82.46;98710.25;6286609;20;3600285;-50
2023/04/24 09:57:09;;;;;;;;;32.67;27.00;;;;;16.94;83.56;98706.59;6284691;20;3608692;-47
2023/04/24 09:59:45;;;;;;;;;42.00;35.33;;;;;17.08;85.16;98709.56;6284499;20;3576332;-53
2023/04/24 10:02:20;;;;;;;;;30.00;28.67;;;;;17.40;82.92;98718.88;6285958;20;3598660;-50
2023/04/24 10:04:58;;;;;;;;;28.33;28.00;;;;;17.34;82.31;98704.09;6287067;20;3600416;-48
2023/04/24 10:07:28;;;;;;;;;33.67;32.00;;;;;17.99;83.10;98713.56;6289180;20;3610696;-52
2023/04/24 10:09:58;;;;;;;;;33.33;30.67;;;;;17.81;82.54;98710.13;6285848;20;3591058;-48
2023/04/24 10:12:28;;;;;;;;;35.00;33.00;;;;;18.32;80.57;98702.75;6285417;20;2869193;-52
2023/04/24 10:14:58;;;;;;;;;34.00;30.00;;;;;17.55;80.58;98706.41;6312643;20;3602485;-52
2023/04/24 10:17:29;;;;;;;;;34.67;30.00;;;;;17.82;81.69;98703.66;6283464;20;3586865;-56
2023/04/24 10:20:01;;;;;;;;;31.67;28.67;;;;;17.45;83.03;98704.84;6287727;20;3594044;-51
2023/04/24 10:22:30;;;;;;;;;25.33;24.67;;;;;17.79;82.15;98702.13;6284406;20;3593123;-54
2023/04/24 10:25:00;;;;;;;;;34.33;31.67;;;;;17.55;82.90;98700.16;6283671;20;3598248;-52
2023/04/24 10:27:32;;;;;;;;;29.67;27.67;;;;;17.57;80.71;98689.97;6314414;20;3604450;-50
2023/04/24 10:30:02;;;;;;;;;31.67;30.00;;;;;17.61;81.35;98699.47;6285238;20;3589839;-51
2023/04/24 10:32:31;;;;;;;;;29.67;29.00;;;;;17.85;79.99;98696.06;6286762;20;3590990;-50
2023/04/24 10:35:00;;;;;;;;;38.67;30.00;;;;;18.28;79.65;98695.97;6283468;20;3613865;-51
2023/04/24 10:37:38;;;;;;;;;23.33;22.67;;;;;17.40;81.29;98690.91;6279666;20;3585747;-53
2023/04/24 10:40:09;;;;;;;;;32.00;30.00;;;;;17.91;83.29;98705.41;6280208;20;3587757;-49
2023/04/24 10:42:42;;;;;;;;;28.33;28.33;;;;;17.42;81.52;98689.72;6282964;20;3576353;-48
2023/04/24 10:45:23;;;;;;;;;29.00;29.00;;;;;18.37;81.26;98689.50;6284054;20;3585670;-49
2023/04/24 10:48:03;;;;;;;;;37.00;31.67;;;;;18.74;76.34;98683.56;6286012;20;3607553;-53
2023/04/24 10:50:52;;;;;;;;;30.67;27.00;;;;;18.44;77.28;98679.66;6285415;20;3606509;-54
2023/04/24 10:53:26;;;;;;;;;30.67;30.00;;;;;19.08;78.24;98683.34;6286350;20;3585702;-49
2023/04/24 10:56:09;;;;;;;;;26.00;26.00;;;;;18.56;76.68;98683.75;6286833;20;3581488;-54
2023/04/24 10:58:50;;;;;;;;;27.67;24.67;;;;;18.50;78.91;98673.53;6285314;20;3584704;-51
2023/04/24 11:01:30;;;;;;;;;27.33;25.00;;;;;18.70;76.78;98667.78;6284031;20;3593046;-52
2023/04/24 11:04:03;;;;;;;;;27.67;24.00;;;;;18.52;77.47;98667.94;6285101;20;3608727;-51
2023/04/24 11:06:37;;;;;;;;;28.00;24.67;;;;;18.98;77.22;98671.81;6284829;20;3595071;-53
2023/04/24 11:09:12;;;;;;;;;25.00;24.00;;;;;18.80;76.37;98669.31;6282967;20;3598267;-49
2023/04/24 11:11:46;;;;;;;;;22.67;20.33;;;;;19.55;69.82;98667.22;6284937;20;3578362;-51
2023/04/24 11:14:16;;;;;;;;;22.67;20.00;;;;;20.08;66.99;98674.63;6284544;20;3573299;-53
2023/04/24 11:16:53;;;;;;;;;20.33;20.33;;;;;19.40;66.07;98670.69;6283135;20;3571069;-50
2023/04/24 11:19:28;;;;;;;;;19.33;19.33;;;;;19.93;65.60;98670.97;6286888;20;3572249;-49